New Richmond, Indiana
Current Conditions -  °F | °C
As of 6:54 PM on Wednesday 28 Jan 2015 (Local Time) from KLAF Reporting Station
Clear Clear  
Wind Chill: 24°   Ceiling: Unl
Heat Index: 33°   Visibility: 10mi
Dew Point: 20°   Wind: 12mph
Humidity: 59%   Direction: 130°SE
Pressure: 30.09"   Gusts: NA
Location:  40.2°N, 86.98°W
Report Text: KLAF 282354Z 13010KT 10SM CLR 01/M07 A3009 RMK AO2 SLP197 T00061067 10028 20000 58026
Loading
Personal Weather Stations






























Interactive Weather Map New forecast layout! Learn more

10-Day Weather Forecast

Advertisements
Track Severe Weather on mobile